Terminal Aerodrome Forecast
Issued by NWS Louisville, KY

Home | Current Version | Previous Version | Text Only | Print | Product List | Glossary On
Versions: 1 2 3 4 5 6 7 8 9 10 11 12 13 14 15 16 17 18 19 20 21 22 23 24 25 26
070
FTUS43 KLMK 132320
TAFLEX
TAF
KLEX 132320Z 1400/1424 05008KT 4SM -RA BR OVC007
     FM140500 06009KT 2SM -DZ BR OVC004
     FM141700 VRB03KT 2SM -DZ BR OVC006
     FM142000 28005KT 3SM -RA BR BKN003=

USA.gov is the U.S. government's official web portal to all federal, state and local government web resources and services.